sensor_id;sensor_type;location;lat;lon;timestamp;temperature;humidity
61201;DHT22;47065;52.898;6.992;2023-07-24T00:02:03;17.30;99.90
61201;DHT22;47065;52.898;6.992;2023-07-24T00:04:31;17.20;99.90
61201;DHT22;47065;52.898;6.992;2023-07-24T00:06:56;17.20;99.90
61201;DHT22;47065;52.898;6.992;2023-07-24T00:09:22;17.20;99.90
61201;DHT22;47065;52.898;6.992;2023-07-24T00:11:48;17.20;99.90
61201;DHT22;47065;52.898;6.992;2023-07-24T00:14:15;17.20;99.90
61201;DHT22;47065;52.898;6.992;2023-07-24T00:16:41;17.20;99.90
61201;DHT22;47065;52.898;6.992;2023-07-24T00:19:07;17.20;99.90
61201;DHT22;47065;52.898;6.992;2023-07-24T00:21:32;17.20;99.90
61201;DHT22;47065;52.898;6.992;2023-07-24T00:23:58;17.20;99.90
61201;DHT22;47065;52.898;6.992;2023-07-24T00:26:24;17.20;99.90
61201;DHT22;47065;52.898;6.992;2023-07-24T00:28:49;17.30;99.90
61201;DHT22;47065;52.898;6.992;2023-07-24T00:31:15;17.30;99.90
61201;DHT22;47065;52.898;6.992;2023-07-24T00:33:41;17.30;99.90
61201;DHT22;47065;52.898;6.992;2023-07-24T00:36:06;17.30;99.90
61201;DHT22;47065;52.898;6.992;2023-07-24T00:38:32;17.30;99.90
61201;DHT22;47065;52.898;6.992;2023-07-24T00:40:58;17.30;99.90
61201;DHT22;47065;52.898;6.992;2023-07-24T00:43:23;17.30;99.90
61201;DHT22;47065;52.898;6.992;2023-07-24T00:45:49;17.20;99.90
61201;DHT22;47065;52.898;6.992;2023-07-24T00:48:15;17.20;99.90
61201;DHT22;47065;52.898;6.992;2023-07-24T00:50:43;17.20;99.90
61201;DHT22;47065;52.898;6.992;2023-07-24T00:53:11;17.10;99.90
61201;DHT22;47065;52.898;6.992;2023-07-24T00:55:38;17.10;99.90
61201;DHT22;47065;52.898;6.992;2023-07-24T00:58:04;17.10;99.90
61201;DHT22;47065;52.898;6.992;2023-07-24T01:00:30;17.10;99.90
61201;DHT22;47065;52.898;6.992;2023-07-24T01:02:56;17.00;99.90
61201;DHT22;47065;52.898;6.992;2023-07-24T01:05:25;17.00;99.90
61201;DHT22;47065;52.898;6.992;2023-07-24T01:07:52;16.90;99.90
61201;DHT22;47065;52.898;6.992;2023-07-24T01:10:18;16.90;99.90
61201;DHT22;47065;52.898;6.992;2023-07-24T01:15:59;16.80;99.90
61201;DHT22;47065;52.898;6.992;2023-07-24T01:18:28;16.80;99.90
61201;DHT22;47065;52.898;6.992;2023-07-24T01:20:57;16.80;99.90
61201;DHT22;47065;52.898;6.992;2023-07-24T01:23:45;16.80;99.90
61201;DHT22;47065;52.898;6.992;2023-07-24T01:26:16;16.70;99.90
61201;DHT22;47065;52.898;6.992;2023-07-24T01:28:42;16.70;99.90
61201;DHT22;47065;52.898;6.992;2023-07-24T01:31:08;16.70;99.90
61201;DHT22;47065;52.898;6.992;2023-07-24T01:33:33;16.60;99.90
61201;DHT22;47065;52.898;6.992;2023-07-24T01:36:02;16.60;99.90
61201;DHT22;47065;52.898;6.992;2023-07-24T01:38:31;16.60;99.90
61201;DHT22;47065;52.898;6.992;2023-07-24T01:40:57;16.60;99.90
61201;DHT22;47065;52.898;6.992;2023-07-24T01:43:24;16.50;99.90
61201;DHT22;47065;52.898;6.992;2023-07-24T01:45:51;16.50;99.90
61201;DHT22;47065;52.898;6.992;2023-07-24T01:48:17;16.50;99.90
61201;DHT22;47065;52.898;6.992;2023-07-24T01:50:42;16.40;99.90
61201;DHT22;47065;52.898;6.992;2023-07-24T01:53:08;16.40;99.90
61201;DHT22;47065;52.898;6.992;2023-07-24T01:55:35;16.40;99.90
61201;DHT22;47065;52.898;6.992;2023-07-24T01:58:00;16.40;99.90
61201;DHT22;47065;52.898;6.992;2023-07-24T02:00:26;16.30;99.90
61201;DHT22;47065;52.898;6.992;2023-07-24T02:02:52;16.30;99.90
61201;DHT22;47065;52.898;6.992;2023-07-24T02:05:17;16.30;99.90
61201;DHT22;47065;52.898;6.992;2023-07-24T02:07:43;16.20;99.90
61201;DHT22;47065;52.898;6.992;2023-07-24T02:10:09;16.20;99.90
61201;DHT22;47065;52.898;6.992;2023-07-24T02:12:35;16.20;99.90
61201;DHT22;47065;52.898;6.992;2023-07-24T02:15:01;16.20;99.90
61201;DHT22;47065;52.898;6.992;2023-07-24T02:17:26;16.20;99.90
61201;DHT22;47065;52.898;6.992;2023-07-24T02:19:52;16.10;99.90
61201;DHT22;47065;52.898;6.992;2023-07-24T02:22:18;16.10;99.90
61201;DHT22;47065;52.898;6.992;2023-07-24T02:24:43;16.10;99.90
61201;DHT22;47065;52.898;6.992;2023-07-24T02:27:12;16.10;99.90
61201;DHT22;47065;52.898;6.992;2023-07-24T02:29:39;16.10;99.90
61201;DHT22;47065;52.898;6.992;2023-07-24T02:32:04;16.00;99.90
61201;DHT22;47065;52.898;6.992;2023-07-24T02:34:30;16.00;99.90
61201;DHT22;47065;52.898;6.992;2023-07-24T02:36:56;16.00;99.90
61201;DHT22;47065;52.898;6.992;2023-07-24T02:39:21;16.00;99.90
61201;DHT22;47065;52.898;6.992;2023-07-24T02:41:50;16.00;99.90
61201;DHT22;47065;52.898;6.992;2023-07-24T02:44:16;16.00;99.90
61201;DHT22;47065;52.898;6.992;2023-07-24T02:46:41;16.00;99.90
61201;DHT22;47065;52.898;6.992;2023-07-24T02:49:07;16.00;99.90
61201;DHT22;47065;52.898;6.992;2023-07-24T02:51:33;16.00;99.90
61201;DHT22;47065;52.898;6.992;2023-07-24T02:53:58;16.00;99.90
61201;DHT22;47065;52.898;6.992;2023-07-24T02:56:24;16.00;99.90
61201;DHT22;47065;52.898;6.992;2023-07-24T02:58:50;16.00;99.90
61201;DHT22;47065;52.898;6.992;2023-07-24T03:01:15;16.10;99.90
61201;DHT22;47065;52.898;6.992;2023-07-24T03:03:41;16.10;99.90
61201;DHT22;47065;52.898;6.992;2023-07-24T03:06:07;16.00;99.90
61201;DHT22;47065;52.898;6.992;2023-07-24T03:08:33;16.10;99.90
61201;DHT22;47065;52.898;6.992;2023-07-24T03:10:59;16.10;99.90
61201;DHT22;47065;52.898;6.992;2023-07-24T03:13:25;16.10;99.90
61201;DHT22;47065;52.898;6.992;2023-07-24T03:15:56;16.20;99.90
61201;DHT22;47065;52.898;6.992;2023-07-24T03:18:22;16.20;99.90
61201;DHT22;47065;52.898;6.992;2023-07-24T03:20:48;16.20;99.90
61201;DHT22;47065;52.898;6.992;2023-07-24T03:23:14;16.20;99.90
61201;DHT22;47065;52.898;6.992;2023-07-24T03:25:39;16.20;99.90
61201;DHT22;47065;52.898;6.992;2023-07-24T03:28:05;16.20;99.90
61201;DHT22;47065;52.898;6.992;2023-07-24T03:30:31;16.10;99.90
61201;DHT22;47065;52.898;6.992;2023-07-24T03:32:57;16.10;99.90
61201;DHT22;47065;52.898;6.992;2023-07-24T03:35:23;16.20;99.90
61201;DHT22;47065;52.898;6.992;2023-07-24T03:37:48;16.10;99.90
61201;DHT22;47065;52.898;6.992;2023-07-24T03:40:14;16.10;99.90
61201;DHT22;47065;52.898;6.992;2023-07-24T03:42:41;16.10;99.90
61201;DHT22;47065;52.898;6.992;2023-07-24T03:45:07;16.10;99.90
61201;DHT22;47065;52.898;6.992;2023-07-24T03:47:33;16.10;99.90
61201;DHT22;47065;52.898;6.992;2023-07-24T03:49:59;16.10;99.90
61201;DHT22;47065;52.898;6.992;2023-07-24T03:52:25;16.10;99.90
61201;DHT22;47065;52.898;6.992;2023-07-24T03:54:51;16.10;99.90
61201;DHT22;47065;52.898;6.992;2023-07-24T03:57:17;16.10;99.90
61201;DHT22;47065;52.898;6.992;2023-07-24T03:59:43;16.10;99.90
61201;DHT22;47065;52.898;6.992;2023-07-24T04:02:08;16.20;99.90
61201;DHT22;47065;52.898;6.992;2023-07-24T04:04:34;16.20;99.90
61201;DHT22;47065;52.898;6.992;2023-07-24T04:07:00;16.20;99.90
61201;DHT22;47065;52.898;6.992;2023-07-24T04:09:26;16.20;99.90
61201;DHT22;47065;52.898;6.992;2023-07-24T04:11:52;16.20;99.90
61201;DHT22;47065;52.898;6.992;2023-07-24T04:14:18;16.30;99.90
61201;DHT22;47065;52.898;6.992;2023-07-24T04:16:44;16.30;99.90
61201;DHT22;47065;52.898;6.992;2023-07-24T04:19:10;16.30;99.90
61201;DHT22;47065;52.898;6.992;2023-07-24T04:21:36;16.30;99.90
61201;DHT22;47065;52.898;6.992;2023-07-24T04:24:01;16.40;99.90
61201;DHT22;47065;52.898;6.992;2023-07-24T04:26:27;16.40;99.90
61201;DHT22;47065;52.898;6.992;2023-07-24T04:28:53;16.40;99.90
61201;DHT22;47065;52.898;6.992;2023-07-24T04:31:18;16.40;99.90
61201;DHT22;47065;52.898;6.992;2023-07-24T04:33:44;16.40;99.90
61201;DHT22;47065;52.898;6.992;2023-07-24T04:36:10;16.50;99.90
61201;DHT22;47065;52.898;6.992;2023-07-24T04:38:35;16.50;99.90
61201;DHT22;47065;52.898;6.992;2023-07-24T04:41:01;16.50;99.90
61201;DHT22;47065;52.898;6.992;2023-07-24T04:43:30;16.50;99.90
61201;DHT22;47065;52.898;6.992;2023-07-24T04:45:55;16.50;99.90
61201;DHT22;47065;52.898;6.992;2023-07-24T04:48:21;16.50;99.90
61201;DHT22;47065;52.898;6.992;2023-07-24T04:50:52;16.60;99.90
61201;DHT22;47065;52.898;6.992;2023-07-24T04:53:18;16.50;99.90
61201;DHT22;47065;52.898;6.992;2023-07-24T04:55:45;16.50;99.90
61201;DHT22;47065;52.898;6.992;2023-07-24T04:58:11;16.60;99.90
61201;DHT22;47065;52.898;6.992;2023-07-24T05:00:37;16.50;99.90
61201;DHT22;47065;52.898;6.992;2023-07-24T05:03:03;16.60;99.90
61201;DHT22;47065;52.898;6.992;2023-07-24T05:05:28;16.60;99.90
61201;DHT22;47065;52.898;6.992;2023-07-24T05:07:54;16.60;99.90
61201;DHT22;47065;52.898;6.992;2023-07-24T05:10:19;16.60;99.90
61201;DHT22;47065;52.898;6.992;2023-07-24T05:12:45;16.60;99.90
61201;DHT22;47065;52.898;6.992;2023-07-24T05:15:11;16.60;99.90
61201;DHT22;47065;52.898;6.992;2023-07-24T05:17:36;16.60;99.90
61201;DHT22;47065;52.898;6.992;2023-07-24T05:20:02;16.60;99.90
61201;DHT22;47065;52.898;6.992;2023-07-24T05:22:28;16.70;99.90
61201;DHT22;47065;52.898;6.992;2023-07-24T05:24:53;16.70;99.90
61201;DHT22;47065;52.898;6.992;2023-07-24T05:27:19;16.70;99.90
61201;DHT22;47065;52.898;6.992;2023-07-24T05:29:45;16.70;99.90
61201;DHT22;47065;52.898;6.992;2023-07-24T05:32:10;16.70;99.90
61201;DHT22;47065;52.898;6.992;2023-07-24T05:34:36;16.70;99.90
61201;DHT22;47065;52.898;6.992;2023-07-24T05:37:02;16.70;99.90
61201;DHT22;47065;52.898;6.992;2023-07-24T05:39:29;16.70;99.90
61201;DHT22;47065;52.898;6.992;2023-07-24T05:41:55;16.60;99.90
61201;DHT22;47065;52.898;6.992;2023-07-24T05:44:21;16.60;99.90
61201;DHT22;47065;52.898;6.992;2023-07-24T05:46:46;16.60;99.90
61201;DHT22;47065;52.898;6.992;2023-07-24T05:49:12;16.60;99.90
61201;DHT22;47065;52.898;6.992;2023-07-24T05:51:38;16.60;99.90
61201;DHT22;47065;52.898;6.992;2023-07-24T05:54:03;16.60;99.90
61201;DHT22;47065;52.898;6.992;2023-07-24T05:56:29;16.60;99.90
61201;DHT22;47065;52.898;6.992;2023-07-24T05:58:55;16.60;99.90
61201;DHT22;47065;52.898;6.992;2023-07-24T06:01:20;16.60;99.90
61201;DHT22;47065;52.898;6.992;2023-07-24T06:03:46;16.60;99.90
61201;DHT22;47065;52.898;6.992;2023-07-24T06:06:12;16.70;99.90
61201;DHT22;47065;52.898;6.992;2023-07-24T06:08:37;16.70;99.90
61201;DHT22;47065;52.898;6.992;2023-07-24T06:11:03;16.80;99.90
61201;DHT22;47065;52.898;6.992;2023-07-24T06:13:28;16.80;99.90
61201;DHT22;47065;52.898;6.992;2023-07-24T06:15:54;16.80;99.90
61201;DHT22;47065;52.898;6.992;2023-07-24T06:18:20;16.90;99.90
61201;DHT22;47065;52.898;6.992;2023-07-24T06:20:46;16.90;99.90
61201;DHT22;47065;52.898;6.992;2023-07-24T06:23:12;16.90;99.90
61201;DHT22;47065;52.898;6.992;2023-07-24T06:25:38;17.00;99.90
61201;DHT22;47065;52.898;6.992;2023-07-24T06:28:03;17.00;99.90
61201;DHT22;47065;52.898;6.992;2023-07-24T06:30:29;17.10;99.90
61201;DHT22;47065;52.898;6.992;2023-07-24T06:32:55;17.10;99.90
61201;DHT22;47065;52.898;6.992;2023-07-24T06:35:20;17.10;99.90
61201;DHT22;47065;52.898;6.992;2023-07-24T06:37:46;17.20;99.90
61201;DHT22;47065;52.898;6.992;2023-07-24T06:40:12;17.20;99.90
61201;DHT22;47065;52.898;6.992;2023-07-24T06:42:37;17.20;99.90
61201;DHT22;47065;52.898;6.992;2023-07-24T06:45:03;17.30;99.90
61201;DHT22;47065;52.898;6.992;2023-07-24T06:47:29;17.30;99.90
61201;DHT22;47065;52.898;6.992;2023-07-24T06:49:55;17.40;99.90
61201;DHT22;47065;52.898;6.992;2023-07-24T06:52:20;17.40;99.90
61201;DHT22;47065;52.898;6.992;2023-07-24T06:54:46;17.50;99.90
61201;DHT22;47065;52.898;6.992;2023-07-24T06:57:12;17.60;99.90
61201;DHT22;47065;52.898;6.992;2023-07-24T06:59:37;17.60;99.90
61201;DHT22;47065;52.898;6.992;2023-07-24T07:02:03;17.60;99.90
61201;DHT22;47065;52.898;6.992;2023-07-24T07:04:29;17.70;99.90
61201;DHT22;47065;52.898;6.992;2023-07-24T07:06:55;17.80;99.90
61201;DHT22;47065;52.898;6.992;2023-07-24T07:09:20;17.80;99.90
61201;DHT22;47065;52.898;6.992;2023-07-24T07:11:46;17.90;99.90
61201;DHT22;47065;52.898;6.992;2023-07-24T07:14:12;17.90;99.90
61201;DHT22;47065;52.898;6.992;2023-07-24T07:16:38;17.90;99.90
61201;DHT22;47065;52.898;6.992;2023-07-24T07:19:04;18.00;99.90
61201;DHT22;47065;52.898;6.992;2023-07-24T07:21:29;18.00;99.90
61201;DHT22;47065;52.898;6.992;2023-07-24T07:23:55;18.10;99.90
61201;DHT22;47065;52.898;6.992;2023-07-24T07:26:20;18.10;99.90
61201;DHT22;47065;52.898;6.992;2023-07-24T07:28:47;18.20;99.90
61201;DHT22;47065;52.898;6.992;2023-07-24T07:31:13;18.20;99.90
61201;DHT22;47065;52.898;6.992;2023-07-24T07:33:39;18.30;99.90
61201;DHT22;47065;52.898;6.992;2023-07-24T07:36:05;18.30;99.90
61201;DHT22;47065;52.898;6.992;2023-07-24T07:38:31;18.40;99.90
61201;DHT22;47065;52.898;6.992;2023-07-24T07:40:57;18.50;99.90
61201;DHT22;47065;52.898;6.992;2023-07-24T07:43:23;18.60;99.90
61201;DHT22;47065;52.898;6.992;2023-07-24T07:45:49;18.70;99.90
61201;DHT22;47065;52.898;6.992;2023-07-24T07:48:14;18.70;99.90
61201;DHT22;47065;52.898;6.992;2023-07-24T07:50:40;18.70;99.90
61201;DHT22;47065;52.898;6.992;2023-07-24T07:53:06;18.80;99.90
61201;DHT22;47065;52.898;6.992;2023-07-24T07:55:31;18.80;99.90
61201;DHT22;47065;52.898;6.992;2023-07-24T07:57:57;18.80;99.90
61201;DHT22;47065;52.898;6.992;2023-07-24T08:00:23;18.90;99.90
61201;DHT22;47065;52.898;6.992;2023-07-24T08:02:48;18.90;99.90
61201;DHT22;47065;52.898;6.992;2023-07-24T08:05:14;19.00;99.90
61201;DHT22;47065;52.898;6.992;2023-07-24T08:07:41;19.10;99.90
61201;DHT22;47065;52.898;6.992;2023-07-24T08:10:07;19.20;99.90
61201;DHT22;47065;52.898;6.992;2023-07-24T08:12:33;19.30;99.90
61201;DHT22;47065;52.898;6.992;2023-07-24T08:14:59;19.40;99.90
61201;DHT22;47065;52.898;6.992;2023-07-24T08:17:24;19.50;99.90
61201;DHT22;47065;52.898;6.992;2023-07-24T08:19:50;19.60;99.90
61201;DHT22;47065;52.898;6.992;2023-07-24T08:22:16;19.70;99.90
61201;DHT22;47065;52.898;6.992;2023-07-24T08:24:41;19.80;99.90
61201;DHT22;47065;52.898;6.992;2023-07-24T08:27:07;19.80;99.90
61201;DHT22;47065;52.898;6.992;2023-07-24T08:29:33;19.80;99.90
61201;DHT22;47065;52.898;6.992;2023-07-24T08:32:01;19.80;99.90
61201;DHT22;47065;52.898;6.992;2023-07-24T08:34:26;19.80;99.90
61201;DHT22;47065;52.898;6.992;2023-07-24T08:36:52;19.90;99.90
61201;DHT22;47065;52.898;6.992;2023-07-24T08:39:17;20.00;99.90
61201;DHT22;47065;52.898;6.992;2023-07-24T08:41:43;20.10;99.90
61201;DHT22;47065;52.898;6.992;2023-07-24T08:44:09;20.30;99.90
61201;DHT22;47065;52.898;6.992;2023-07-24T08:46:38;20.50;99.90
61201;DHT22;47065;52.898;6.992;2023-07-24T08:49:13;21.10;99.90
61201;DHT22;47065;52.898;6.992;2023-07-24T08:51:43;21.90;99.90
61201;DHT22;47065;52.898;6.992;2023-07-24T08:54:10;22.40;99.90
61201;DHT22;47065;52.898;6.992;2023-07-24T08:56:37;22.40;99.90
61201;DHT22;47065;52.898;6.992;2023-07-24T08:59:05;22.30;99.90
61201;DHT22;47065;52.898;6.992;2023-07-24T09:01:31;22.00;99.90
61201;DHT22;47065;52.898;6.992;2023-07-24T09:03:57;21.80;99.90
61201;DHT22;47065;52.898;6.992;2023-07-24T09:06:23;21.70;99.90
61201;DHT22;47065;52.898;6.992;2023-07-24T09:08:48;21.70;99.90
61201;DHT22;47065;52.898;6.992;2023-07-24T09:11:14;21.70;99.90
61201;DHT22;47065;52.898;6.992;2023-07-24T09:13:43;21.80;99.90
61201;DHT22;47065;52.898;6.992;2023-07-24T09:16:21;22.10;99.90
61201;DHT22;47065;52.898;6.992;2023-07-24T09:18:47;22.90;99.90
61201;DHT22;47065;52.898;6.992;2023-07-24T09:21:13;23.30;99.90
61201;DHT22;47065;52.898;6.992;2023-07-24T09:23:39;23.30;99.90
61201;DHT22;47065;52.898;6.992;2023-07-24T09:26:09;23.30;99.90
61201;DHT22;47065;52.898;6.992;2023-07-24T09:28:35;23.30;99.90
61201;DHT22;47065;52.898;6.992;2023-07-24T09:31:01;23.20;99.90
61201;DHT22;47065;52.898;6.992;2023-07-24T09:33:38;23.00;99.90
61201;DHT22;47065;52.898;6.992;2023-07-24T09:36:05;22.80;99.90
61201;DHT22;47065;52.898;6.992;2023-07-24T09:38:33;22.60;99.90
61201;DHT22;47065;52.898;6.992;2023-07-24T09:41:01;22.40;99.90
61201;DHT22;47065;52.898;6.992;2023-07-24T09:43:28;22.20;99.90
61201;DHT22;47065;52.898;6.992;2023-07-24T09:45:54;21.90;99.90
61201;DHT22;47065;52.898;6.992;2023-07-24T09:48:22;21.90;99.90
61201;DHT22;47065;52.898;6.992;2023-07-24T09:50:52;22.40;99.90
61201;DHT22;47065;52.898;6.992;2023-07-24T09:53:33;22.80;99.90
61201;DHT22;47065;52.898;6.992;2023-07-24T09:56:06;23.30;99.90
61201;DHT22;47065;52.898;6.992;2023-07-24T09:58:34;24.00;99.90
61201;DHT22;47065;52.898;6.992;2023-07-24T10:01:04;24.70;99.90
61201;DHT22;47065;52.898;6.992;2023-07-24T10:03:35;25.50;99.90
61201;DHT22;47065;52.898;6.992;2023-07-24T10:06:02;26.00;99.90
61201;DHT22;47065;52.898;6.992;2023-07-24T10:08:28;26.10;99.90
61201;DHT22;47065;52.898;6.992;2023-07-24T10:10:54;25.80;99.90
61201;DHT22;47065;52.898;6.992;2023-07-24T10:13:20;25.40;99.90
61201;DHT22;47065;52.898;6.992;2023-07-24T10:15:48;24.90;99.90
61201;DHT22;47065;52.898;6.992;2023-07-24T10:18:16;24.40;99.90
61201;DHT22;47065;52.898;6.992;2023-07-24T10:20:45;24.00;99.90
61201;DHT22;47065;52.898;6.992;2023-07-24T10:23:16;23.50;99.90
61201;DHT22;47065;52.898;6.992;2023-07-24T10:25:44;23.10;99.90
61201;DHT22;47065;52.898;6.992;2023-07-24T10:28:11;22.80;99.90
61201;DHT22;47065;52.898;6.992;2023-07-24T10:30:38;22.90;99.90
61201;DHT22;47065;52.898;6.992;2023-07-24T10:33:33;23.10;99.90
61201;DHT22;47065;52.898;6.992;2023-07-24T10:36:09;23.40;99.90
61201;DHT22;47065;52.898;6.992;2023-07-24T10:38:42;23.70;99.90
61201;DHT22;47065;52.898;6.992;2023-07-24T10:41:10;23.90;99.90
61201;DHT22;47065;52.898;6.992;2023-07-24T10:43:43;24.10;99.90
61201;DHT22;47065;52.898;6.992;2023-07-24T10:46:08;24.30;99.90
61201;DHT22;47065;52.898;6.992;2023-07-24T10:48:34;24.30;99.90
61201;DHT22;47065;52.898;6.992;2023-07-24T10:51:09;24.20;99.90
61201;DHT22;47065;52.898;6.992;2023-07-24T10:53:37;24.00;99.90
61201;DHT22;47065;52.898;6.992;2023-07-24T10:56:06;23.70;99.90
61201;DHT22;47065;52.898;6.992;2023-07-24T10:58:33;23.50;99.90
61201;DHT22;47065;52.898;6.992;2023-07-24T11:00:59;23.40;99.90
61201;DHT22;47065;52.898;6.992;2023-07-24T11:03:25;23.40;99.90
61201;DHT22;47065;52.898;6.992;2023-07-24T11:05:51;23.50;99.90
61201;DHT22;47065;52.898;6.992;2023-07-24T11:08:20;23.70;99.90
61201;DHT22;47065;52.898;6.992;2023-07-24T11:10:53;23.80;99.90
61201;DHT22;47065;52.898;6.992;2023-07-24T11:13:22;23.80;99.90
61201;DHT22;47065;52.898;6.992;2023-07-24T11:15:49;23.90;99.90
61201;DHT22;47065;52.898;6.992;2023-07-24T11:18:15;24.00;99.90
61201;DHT22;47065;52.898;6.992;2023-07-24T11:20:47;24.00;99.90
61201;DHT22;47065;52.898;6.992;2023-07-24T11:23:13;24.20;99.90
61201;DHT22;47065;52.898;6.992;2023-07-24T11:25:40;24.30;99.90
61201;DHT22;47065;52.898;6.992;2023-07-24T11:28:06;24.30;99.90
61201;DHT22;47065;52.898;6.992;2023-07-24T11:30:33;24.30;99.90
61201;DHT22;47065;52.898;6.992;2023-07-24T11:33:00;24.20;99.90
61201;DHT22;47065;52.898;6.992;2023-07-24T11:35:27;24.20;99.90
61201;DHT22;47065;52.898;6.992;2023-07-24T11:37:52;24.20;99.90
61201;DHT22;47065;52.898;6.992;2023-07-24T11:40:18;24.30;99.90
61201;DHT22;47065;52.898;6.992;2023-07-24T11:42:49;24.20;99.90
61201;DHT22;47065;52.898;6.992;2023-07-24T11:45:15;24.20;99.90
61201;DHT22;47065;52.898;6.992;2023-07-24T11:47:48;24.10;99.90
61201;DHT22;47065;52.898;6.992;2023-07-24T11:50:15;24.00;99.90
61201;DHT22;47065;52.898;6.992;2023-07-24T11:52:43;23.90;99.90
61201;DHT22;47065;52.898;6.992;2023-07-24T11:55:13;23.90;99.90
61201;DHT22;47065;52.898;6.992;2023-07-24T11:57:39;23.80;99.90
61201;DHT22;47065;52.898;6.992;2023-07-24T12:00:05;23.70;99.90
61201;DHT22;47065;52.898;6.992;2023-07-24T12:02:32;23.60;99.90
61201;DHT22;47065;52.898;6.992;2023-07-24T12:04:59;23.60;99.90
61201;DHT22;47065;52.898;6.992;2023-07-24T12:07:35;23.60;99.90
61201;DHT22;47065;52.898;6.992;2023-07-24T12:10:05;23.60;99.90
61201;DHT22;47065;52.898;6.992;2023-07-24T12:12:45;23.60;99.90
61201;DHT22;47065;52.898;6.992;2023-07-24T12:15:12;23.70;99.90
61201;DHT22;47065;52.898;6.992;2023-07-24T12:17:38;23.70;99.90
61201;DHT22;47065;52.898;6.992;2023-07-24T12:20:05;23.60;99.90
61201;DHT22;47065;52.898;6.992;2023-07-24T12:22:34;23.60;99.90
61201;DHT22;47065;52.898;6.992;2023-07-24T12:25:01;23.60;99.90
61201;DHT22;47065;52.898;6.992;2023-07-24T12:27:26;23.50;99.90
61201;DHT22;47065;52.898;6.992;2023-07-24T12:29:52;23.50;99.90
61201;DHT22;47065;52.898;6.992;2023-07-24T12:32:18;23.50;99.90
61201;DHT22;47065;52.898;6.992;2023-07-24T12:34:46;23.40;99.90
61201;DHT22;47065;52.898;6.992;2023-07-24T12:37:12;23.40;99.90
61201;DHT22;47065;52.898;6.992;2023-07-24T12:39:37;23.40;99.90
61201;DHT22;47065;52.898;6.992;2023-07-24T12:42:05;23.40;99.90
61201;DHT22;47065;52.898;6.992;2023-07-24T12:44:30;23.30;99.90
61201;DHT22;47065;52.898;6.992;2023-07-24T12:46:56;23.30;99.90
61201;DHT22;47065;52.898;6.992;2023-07-24T12:49:22;23.30;99.90
61201;DHT22;47065;52.898;6.992;2023-07-24T12:51:47;23.30;99.90
61201;DHT22;47065;52.898;6.992;2023-07-24T12:54:13;23.30;99.90
61201;DHT22;47065;52.898;6.992;2023-07-24T12:56:39;23.40;99.90
61201;DHT22;47065;52.898;6.992;2023-07-24T12:59:05;23.50;99.90
61201;DHT22;47065;52.898;6.992;2023-07-24T13:01:31;23.70;99.90
61201;DHT22;47065;52.898;6.992;2023-07-24T13:03:57;24.00;99.90
61201;DHT22;47065;52.898;6.992;2023-07-24T13:06:23;24.30;99.90
61201;DHT22;47065;52.898;6.992;2023-07-24T13:08:49;24.70;99.90
61201;DHT22;47065;52.898;6.992;2023-07-24T13:11:15;24.80;99.90
61201;DHT22;47065;52.898;6.992;2023-07-24T13:13:40;24.90;99.90
61201;DHT22;47065;52.898;6.992;2023-07-24T13:16:06;25.10;99.80
61201;DHT22;47065;52.898;6.992;2023-07-24T13:18:32;25.10;98.50
61201;DHT22;47065;52.898;6.992;2023-07-24T13:20:58;25.20;96.90
61201;DHT22;47065;52.898;6.992;2023-07-24T13:23:24;25.20;97.50
61201;DHT22;47065;52.898;6.992;2023-07-24T13:25:51;25.20;98.40
61201;DHT22;47065;52.898;6.992;2023-07-24T13:28:17;25.20;97.70
61201;DHT22;47065;52.898;6.992;2023-07-24T13:30:43;25.10;97.70
61201;DHT22;47065;52.898;6.992;2023-07-24T13:33:08;24.90;98.40
61201;DHT22;47065;52.898;6.992;2023-07-24T13:35:34;24.80;97.70
61201;DHT22;47065;52.898;6.992;2023-07-24T13:38:00;24.60;97.90
61201;DHT22;47065;52.898;6.992;2023-07-24T13:40:25;24.50;98.40
61201;DHT22;47065;52.898;6.992;2023-07-24T13:42:51;24.30;98.00
61201;DHT22;47065;52.898;6.992;2023-07-24T13:45:17;24.30;97.70
61201;DHT22;47065;52.898;6.992;2023-07-24T13:47:43;24.30;97.70
61201;DHT22;47065;52.898;6.992;2023-07-24T13:50:08;24.40;97.80
61201;DHT22;47065;52.898;6.992;2023-07-24T13:52:34;24.50;98.20
61201;DHT22;47065;52.898;6.992;2023-07-24T13:55:00;24.60;97.60
61201;DHT22;47065;52.898;6.992;2023-07-24T13:57:26;24.50;98.70
61201;DHT22;47065;52.898;6.992;2023-07-24T13:59:52;24.30;99.80
61201;DHT22;47065;52.898;6.992;2023-07-24T14:02:17;24.00;99.90
61201;DHT22;47065;52.898;6.992;2023-07-24T14:04:44;23.50;99.90
61201;DHT22;47065;52.898;6.992;2023-07-24T14:07:09;22.90;99.90
61201;DHT22;47065;52.898;6.992;2023-07-24T14:09:35;22.30;99.90
61201;DHT22;47065;52.898;6.992;2023-07-24T14:12:01;21.80;99.90
61201;DHT22;47065;52.898;6.992;2023-07-24T14:14:27;21.30;99.90
61201;DHT22;47065;52.898;6.992;2023-07-24T14:16:52;20.90;99.90
61201;DHT22;47065;52.898;6.992;2023-07-24T14:19:18;20.50;99.90
61201;DHT22;47065;52.898;6.992;2023-07-24T14:21:44;20.30;99.90
61201;DHT22;47065;52.898;6.992;2023-07-24T14:24:10;20.10;99.90
61201;DHT22;47065;52.898;6.992;2023-07-24T14:26:36;19.90;99.90
61201;DHT22;47065;52.898;6.992;2023-07-24T14:29:03;19.70;99.90
61201;DHT22;47065;52.898;6.992;2023-07-24T14:31:29;19.50;99.90
61201;DHT22;47065;52.898;6.992;2023-07-24T14:33:55;19.30;99.90
61201;DHT22;47065;52.898;6.992;2023-07-24T14:36:20;19.50;99.90
61201;DHT22;47065;52.898;6.992;2023-07-24T14:38:47;19.90;99.90
61201;DHT22;47065;52.898;6.992;2023-07-24T14:41:12;20.10;99.90
61201;DHT22;47065;52.898;6.992;2023-07-24T14:43:40;20.10;99.90
61201;DHT22;47065;52.898;6.992;2023-07-24T14:46:06;19.90;99.90
61201;DHT22;47065;52.898;6.992;2023-07-24T14:48:32;19.70;99.90
61201;DHT22;47065;52.898;6.992;2023-07-24T14:50:57;19.50;99.90
61201;DHT22;47065;52.898;6.992;2023-07-24T14:53:23;19.40;99.90
61201;DHT22;47065;52.898;6.992;2023-07-24T14:55:49;19.20;99.90
61201;DHT22;47065;52.898;6.992;2023-07-24T14:58:14;19.20;99.90
61201;DHT22;47065;52.898;6.992;2023-07-24T15:00:40;19.10;99.90
61201;DHT22;47065;52.898;6.992;2023-07-24T15:03:05;19.10;99.90
61201;DHT22;47065;52.898;6.992;2023-07-24T15:05:31;19.20;99.90
61201;DHT22;47065;52.898;6.992;2023-07-24T15:07:57;19.20;99.90
61201;DHT22;47065;52.898;6.992;2023-07-24T15:10:23;19.10;99.90
61201;DHT22;47065;52.898;6.992;2023-07-24T15:12:48;19.00;99.90
61201;DHT22;47065;52.898;6.992;2023-07-24T15:15:14;18.90;99.90
61201;DHT22;47065;52.898;6.992;2023-07-24T15:17:40;18.90;99.90
61201;DHT22;47065;52.898;6.992;2023-07-24T15:20:06;18.90;99.90
61201;DHT22;47065;52.898;6.992;2023-07-24T15:22:34;18.90;99.90
61201;DHT22;47065;52.898;6.992;2023-07-24T15:24:59;19.00;99.90
61201;DHT22;47065;52.898;6.992;2023-07-24T15:27:25;19.20;99.90
61201;DHT22;47065;52.898;6.992;2023-07-24T15:29:50;19.20;99.90